Time;durP1;ratioP1;P1;durP2;ratioP2;P2;SDS_P1;SDS_P2;PMS_P1;PMS_P2;Temp;Humidity;BMP_temperature;BMP_pressure;BME280_temperature;BME280_humidity;BME280_pressure;Samples;Min_cycle;Max_cycle;Signal;HPM_P1;HPM_P2
2023/05/03 00:02:25;;;;;;;1.63;1.63;;;19.40;68.10;;;;;;5067515;28;43617;-70
2023/05/03 00:04:54;;;;;;;1.47;1.47;;;19.30;68.20;;;;;;5065334;28;43975;-70
2023/05/03 00:07:21;;;;;;;1.70;1.70;;;19.40;68.30;;;;;;5062705;28;43996;-70
2023/05/03 00:09:51;;;;;;;1.57;1.57;;;19.40;68.20;;;;;;5060327;28;43415;-70
2023/05/03 00:12:19;;;;;;;1.40;1.40;;;19.40;68.10;;;;;;5058583;28;43506;-70
2023/05/03 00:14:47;;;;;;;1.57;1.57;;;19.40;68.20;;;;;;5057573;28;45016;-70
2023/05/03 00:17:15;;;;;;;1.50;1.50;;;19.30;68.20;;;;;;5048551;28;44848;-70
2023/05/03 00:19:44;;;;;;;1.63;1.63;;;19.30;68.40;;;;;;5059475;28;43442;-70
2023/05/03 00:22:11;;;;;;;1.60;1.60;;;19.40;68.30;;;;;;5061879;28;43423;-70
2023/05/03 00:24:39;;;;;;;1.57;1.57;;;19.50;67.90;;;;;;5065872;28;43915;-70
2023/05/03 00:27:09;;;;;;;1.57;1.57;;;19.60;67.60;;;;;;5063949;28;43359;-70
2023/05/03 00:29:37;;;;;;;1.80;1.80;;;19.70;67.30;;;;;;5059341;28;43362;-71
2023/05/03 00:32:05;;;;;;;1.67;1.67;;;19.80;67.20;;;;;;5063316;28;43427;-70
2023/05/03 00:34:33;;;;;;;1.80;1.80;;;19.70;67.10;;;;;;5063679;28;43898;-70
2023/05/03 00:37:01;;;;;;;1.60;1.57;;;19.70;67.20;;;;;;5059586;28;43423;-70
2023/05/03 00:39:30;;;;;;;1.57;1.57;;;19.60;67.40;;;;;;5066223;28;43413;-71
2023/05/03 00:41:58;;;;;;;1.63;1.63;;;19.60;67.80;;;;;;5063106;28;43427;-71
2023/05/03 00:44:27;;;;;;;1.50;1.50;;;19.50;67.80;;;;;;5059223;28;44742;-71
2023/05/03 00:46:55;;;;;;;1.80;1.80;;;19.50;67.80;;;;;;5062830;28;43431;-71
2023/05/03 00:49:24;;;;;;;1.90;1.90;;;19.50;67.80;;;;;;5052092;28;43401;-71
2023/05/03 00:51:53;;;;;;;1.40;1.40;;;19.40;67.70;;;;;;5052495;28;43446;-71
2023/05/03 00:54:21;;;;;;;1.50;1.50;;;19.40;67.90;;;;;;5056777;28;43842;-71
2023/05/03 00:56:49;;;;;;;1.70;1.70;;;19.40;68.20;;;;;;5062461;28;43363;-71
2023/05/03 00:59:19;;;;;;;1.50;1.50;;;19.40;68.10;;;;;;5048348;28;43406;-70
2023/05/03 01:01:49;;;;;;;1.40;1.40;;;19.40;68.10;;;;;;5062438;28;43910;-70
2023/05/03 01:04:17;;;;;;;1.80;1.80;;;19.40;68.10;;;;;;5051672;28;45941;-69
2023/05/03 01:06:50;;;;;;;1.50;1.50;;;19.30;68.00;;;;;;5054185;28;43414;-69
2023/05/03 01:09:23;;;;;;;1.60;1.60;;;19.30;68.30;;;;;;5053753;28;43451;-70
2023/05/03 01:11:55;;;;;;;1.77;1.77;;;19.40;68.40;;;;;;5054625;28;43528;-69
2023/05/03 01:14:26;;;;;;;1.70;1.70;;;19.40;68.10;;;;;;5056960;28;44007;-69
2023/05/03 01:16:58;;;;;;;1.57;1.57;;;19.60;67.90;;;;;;5061921;28;45051;-69
2023/05/03 01:19:28;;;;;;;1.50;1.50;;;19.70;67.40;;;;;;5060265;28;43391;-69
2023/05/03 01:22:08;;;;;;;1.60;1.60;;;19.70;67.20;;;;;;5066120;28;43826;-69
2023/05/03 01:24:37;;;;;;;1.60;1.60;;;19.70;67.10;;;;;;5048219;28;46064;-70
2023/05/03 01:27:08;;;;;;;1.60;1.60;;;19.60;67.10;;;;;;5056507;28;43316;-69
2023/05/03 01:29:36;;;;;;;1.60;1.60;;;19.60;67.30;;;;;;5048660;28;43475;-71
2023/05/03 01:32:05;;;;;;;1.50;1.50;;;19.50;67.40;;;;;;5059996;28;43534;-70
2023/05/03 01:34:41;;;;;;;1.73;1.73;;;19.50;67.80;;;;;;5062862;28;45982;-70
2023/05/03 01:37:10;;;;;;;1.70;1.70;;;19.50;67.70;;;;;;5053138;28;44703;-70
2023/05/03 01:39:40;;;;;;;1.60;1.60;;;19.40;67.70;;;;;;5060996;28;43489;-70
2023/05/03 01:42:09;;;;;;;1.70;1.70;;;19.40;67.80;;;;;;5059715;28;43572;-70
2023/05/03 01:44:37;;;;;;;1.60;1.60;;;19.40;67.90;;;;;;5064206;28;44047;-70
2023/05/03 01:47:05;;;;;;;1.60;1.60;;;19.40;68.20;;;;;;5062888;28;44726;-71
2023/05/03 01:49:34;;;;;;;1.80;1.80;;;19.40;68.20;;;;;;5061562;28;44028;-70
2023/05/03 01:52:02;;;;;;;1.60;1.60;;;19.40;68.10;;;;;;5062063;28;43438;-70
2023/05/03 01:54:30;;;;;;;1.50;1.50;;;19.30;68.00;;;;;;5058619;28;43934;-70
2023/05/03 01:56:58;;;;;;;1.60;1.60;;;19.30;68.00;;;;;;5056370;28;43878;-70
2023/05/03 01:59:27;;;;;;;1.67;1.67;;;19.30;68.30;;;;;;5057798;28;43647;-70
2023/05/03 02:01:55;;;;;;;1.70;1.70;;;19.30;68.30;;;;;;5059143;28;43518;-70
2023/05/03 02:04:23;;;;;;;1.70;1.70;;;19.40;68.20;;;;;;5060725;28;43842;-69
2023/05/03 02:06:51;;;;;;;1.80;1.80;;;19.50;67.80;;;;;;5061069;28;45464;-69
2023/05/03 02:09:19;;;;;;;1.70;1.70;;;19.60;67.40;;;;;;5056107;28;43569;-69
2023/05/03 02:11:47;;;;;;;1.60;1.60;;;19.70;67.30;;;;;;5045017;28;43643;-70
2023/05/03 02:14:15;;;;;;;1.63;1.63;;;19.70;67.20;;;;;;5060351;28;45727;-69
2023/05/03 02:16:45;;;;;;;1.60;1.60;;;19.60;67.20;;;;;;5051967;28;44770;-70
2023/05/03 02:19:13;;;;;;;1.67;1.67;;;19.60;67.30;;;;;;5063869;28;43756;-69
2023/05/03 02:21:41;;;;;;;1.80;1.80;;;19.50;67.50;;;;;;5063971;28;43549;-69
2023/05/03 02:24:09;;;;;;;1.70;1.70;;;19.40;67.70;;;;;;5062684;28;45816;-69
2023/05/03 02:26:37;;;;;;;1.83;1.83;;;19.40;67.80;;;;;;5059692;28;43361;-69
2023/05/03 02:29:06;;;;;;;1.60;1.60;;;19.40;67.70;;;;;;5058055;28;43475;-69
2023/05/03 02:31:34;;;;;;;1.80;1.80;;;19.40;67.70;;;;;;5057326;28;43467;-69
2023/05/03 02:34:05;;;;;;;1.50;1.50;;;19.40;67.80;;;;;;5057105;28;44177;-69
2023/05/03 02:36:33;;;;;;;1.60;1.60;;;19.40;68.00;;;;;;5059183;28;44609;-69
2023/05/03 02:39:02;;;;;;;1.50;1.50;;;19.30;68.20;;;;;;5071678;28;43419;-69
2023/05/03 02:41:30;;;;;;;1.60;1.60;;;19.30;68.10;;;;;;5058852;28;43561;-71
2023/05/03 02:43:59;;;;;;;1.70;1.70;;;19.30;68.00;;;;;;5056933;28;43818;-70
2023/05/03 02:46:27;;;;;;;1.60;1.60;;;19.30;68.70;;;;;;5057277;28;44908;-70
2023/05/03 02:48:55;;;;;;;1.70;1.70;;;19.30;68.00;;;;;;5062125;28;43368;-70
2023/05/03 02:51:26;;;;;;;1.67;1.67;;;19.30;68.10;;;;;;5065032;28;43460;-70
2023/05/03 02:53:54;;;;;;;1.63;1.63;;;19.30;68.30;;;;;;5061797;28;43993;-71
2023/05/03 02:56:24;;;;;;;1.43;1.43;;;19.30;68.20;;;;;;5053602;28;43986;-70
2023/05/03 02:58:52;;;;;;;1.57;1.57;;;19.40;68.00;;;;;;5058894;28;43372;-70
2023/05/03 03:01:22;;;;;;;1.50;1.50;;;19.50;67.60;;;;;;5057680;28;43511;-70
2023/05/03 03:03:50;;;;;;;1.37;1.37;;;19.60;67.30;;;;;;5056334;28;45742;-70
2023/05/03 03:06:18;;;;;;;1.63;1.63;;;19.70;67.20;;;;;;5055360;28;44799;-70
2023/05/03 03:08:49;;;;;;;1.60;1.60;;;19.60;67.00;;;;;;5053419;28;43411;-70
2023/05/03 03:11:18;;;;;;;1.63;1.63;;;19.60;67.10;;;;;;5061914;28;43436;-69
2023/05/03 03:13:47;;;;;;;1.50;1.50;;;19.50;67.20;;;;;;5056932;28;45807;-71
2023/05/03 03:16:15;;;;;;;1.80;1.80;;;19.50;67.50;;;;;;5064128;28;44935;-70
2023/05/03 03:18:43;;;;;;;1.70;1.70;;;19.40;67.70;;;;;;5065734;28;43398;-70
2023/05/03 03:21:11;;;;;;;1.60;1.60;;;19.40;67.70;;;;;;5062945;28;43605;-70
2023/05/03 03:23:39;;;;;;;1.70;1.70;;;19.40;67.70;;;;;;5062111;28;45391;-70
2023/05/03 03:26:08;;;;;;;1.60;1.60;;;19.40;67.70;;;;;;5058764;28;43527;-70
2023/05/03 03:28:36;;;;;;;1.70;1.70;;;19.30;67.70;;;;;;5056595;28;43828;-70
2023/05/03 03:31:10;;;;;;;1.80;1.80;;;19.30;68.00;;;;;;5060330;28;43540;-70
2023/05/03 03:33:40;;;;;;;1.50;1.50;;;19.30;68.00;;;;;;5064226;28;44025;-70
2023/05/03 03:36:13;;;;;;;1.60;1.60;;;19.30;67.90;;;;;;5046717;28;44720;-70
2023/05/03 03:38:44;;;;;;;1.80;1.80;;;19.30;67.90;;;;;;5051190;28;43459;-70
2023/05/03 03:41:13;;;;;;;1.60;1.60;;;19.30;68.00;;;;;;5063634;28;43456;-70
2023/05/03 03:43:41;;;;;;;1.77;1.77;;;19.30;68.10;;;;;;5061624;28;44986;-69
2023/05/03 03:46:15;;;;;;;1.43;1.43;;;19.30;68.20;;;;;;5061616;28;44279;-70
2023/05/03 03:48:43;;;;;;;1.80;1.80;;;19.30;68.00;;;;;;5051942;28;43419;-69
2023/05/03 03:51:11;;;;;;;1.60;1.60;;;19.30;67.90;;;;;;5063847;28;43534;-70
2023/05/03 03:53:45;;;;;;;1.53;1.53;;;19.20;67.90;;;;;;5060850;28;44039;-70
2023/05/03 03:56:14;;;;;;;1.70;1.70;;;19.20;68.00;;;;;;5054890;28;44425;-70
2023/05/03 03:58:43;;;;;;;1.50;1.50;;;19.20;68.20;;;;;;5061502;28;43640;-69
2023/05/03 04:01:12;;;;;;;1.60;1.60;;;19.30;68.10;;;;;;5057697;28;43463;-69
2023/05/03 04:03:40;;;;;;;1.67;1.67;;;19.40;67.90;;;;;;5046657;28;46054;-69
2023/05/03 04:06:08;;;;;;;1.73;1.73;;;19.50;67.50;;;;;;5049352;28;43902;-70
2023/05/03 04:08:36;;;;;;;1.60;1.60;;;19.70;67.20;;;;;;5063327;28;43593;-70
2023/05/03 04:11:06;;;;;;;1.70;1.70;;;19.70;66.90;;;;;;5057995;28;43605;-70
2023/05/03 04:13:37;;;;;;;1.50;1.50;;;19.70;66.90;;;;;;5057954;28;44890;-69
2023/05/03 04:16:05;;;;;;;1.70;1.53;;;19.60;66.60;;;;;;5056486;28;44743;-70
2023/05/03 04:18:35;;;;;;;1.50;1.50;;;19.60;66.90;;;;;;5056916;28;43422;-70
2023/05/03 04:21:05;;;;;;;1.50;1.50;;;19.50;67.20;;;;;;5063836;28;43637;-70
2023/05/03 04:23:32;;;;;;;1.40;1.40;;;19.50;67.60;;;;;;5065801;28;43722;-70
2023/05/03 04:26:02;;;;;;;1.50;1.50;;;19.40;67.40;;;;;;5064970;28;44720;-70
2023/05/03 04:28:33;;;;;;;1.53;1.53;;;19.40;67.40;;;;;;5051349;28;43554;-70
2023/05/03 04:31:02;;;;;;;1.60;1.60;;;19.40;67.50;;;;;;5060696;28;43438;-70
2023/05/03 04:33:32;;;;;;;1.80;1.70;;;19.30;67.60;;;;;;5060681;28;44007;-69
2023/05/03 04:36:05;;;;;;;1.53;1.50;;;19.30;67.90;;;;;;5061842;28;43936;-69
2023/05/03 04:38:35;;;;;;;1.70;1.70;;;19.30;67.60;;;;;;5057047;28;43930;-70
2023/05/03 04:41:04;;;;;;;1.50;1.50;;;19.30;67.30;;;;;;5063261;28;43628;-69
2023/05/03 04:43:31;;;;;;;1.60;1.60;;;19.30;67.30;;;;;;5063727;28;43902;-69
2023/05/03 04:46:01;;;;;;;1.77;1.67;;;19.30;67.40;;;;;;5063086;28;43467;-70
2023/05/03 04:48:30;;;;;;;1.60;1.60;;;19.30;67.70;;;;;;5052815;28;43551;-70
2023/05/03 04:50:58;;;;;;;1.83;1.70;;;19.30;68.00;;;;;;5073262;28;43830;-72
2023/05/03 04:53:27;;;;;;;1.60;1.50;;;19.30;67.60;;;;;;5044788;28;45646;-70
2023/05/03 04:56:04;;;;;;;1.70;1.70;;;19.30;67.60;;;;;;5052297;28;43460;-69
2023/05/03 04:58:36;;;;;;;1.63;1.63;;;19.30;67.60;;;;;;5059597;28;43421;-69
2023/05/03 05:01:05;;;;;;;1.50;1.50;;;19.30;67.60;;;;;;5062018;28;43566;-69
2023/05/03 05:03:35;;;;;;;1.80;1.80;;;19.30;68.00;;;;;;5061674;28;44975;-70
2023/05/03 05:06:11;;;;;;;1.60;1.60;;;19.30;67.80;;;;;;5059878;28;45320;-70
2023/05/03 05:08:40;;;;;;;1.60;1.60;;;19.40;67.40;;;;;;5061748;28;43489;-70
2023/05/03 05:11:11;;;;;;;1.87;1.87;;;19.50;67.00;;;;;;5059383;28;43411;-70
2023/05/03 05:13:39;;;;;;;1.70;1.70;;;19.60;66.70;;;;;;5060148;28;45981;-69
2023/05/03 05:16:07;;;;;;;1.80;1.80;;;19.60;67.30;;;;;;5063572;28;45070;-70
2023/05/03 05:18:37;;;;;;;1.70;1.70;;;19.60;66.00;;;;;;5057756;28;43372;-70
2023/05/03 05:21:08;;;;;;;1.70;1.70;;;19.50;66.00;;;;;;5065685;28;43538;-70
2023/05/03 05:23:38;;;;;;;2.13;2.13;;;19.50;66.50;;;;;;5054275;28;43730;-69
2023/05/03 05:26:10;;;;;;;1.80;1.80;;;19.40;67.00;;;;;;5065307;28;44808;-69
2023/05/03 05:28:39;;;;;;;1.80;1.80;;;19.40;67.20;;;;;;5054242;28;43510;-70
2023/05/03 05:31:07;;;;;;;1.73;1.73;;;19.40;67.00;;;;;;5064209;28;43485;-70
2023/05/03 05:33:37;;;;;;;1.60;1.60;;;19.40;67.20;;;;;;5065599;28;44057;-70
2023/05/03 05:36:06;;;;;;;1.97;1.87;;;19.30;67.00;;;;;;5055620;28;44877;-70
2023/05/03 05:38:34;;;;;;;1.60;1.60;;;19.30;67.20;;;;;;5054833;28;43335;-69
2023/05/03 05:41:03;;;;;;;1.87;1.80;;;19.30;67.60;;;;;;5055790;28;43456;-70
2023/05/03 05:43:33;;;;;;;1.70;1.70;;;19.30;67.60;;;;;;5048098;28;44742;-69
2023/05/03 05:46:01;;;;;;;1.83;1.83;;;19.40;67.50;;;;;;5064923;28;44738;-70
2023/05/03 05:48:29;;;;;;;1.60;1.60;;;19.40;67.10;;;;;;5062945;28;43404;-70
2023/05/03 05:50:59;;;;;;;1.80;1.70;;;19.40;66.70;;;;;;5051625;28;43914;-69
2023/05/03 05:53:27;;;;;;;2.00;1.90;;;19.40;66.30;;;;;;5045141;28;43938;-70
2023/05/03 05:56:00;;;;;;;1.67;1.67;;;19.40;67.10;;;;;;5052552;28;44763;-70
2023/05/03 05:58:30;;;;;;;1.63;1.63;;;19.40;67.20;;;;;;5048168;28;43462;-70
2023/05/03 06:01:00;;;;;;;1.50;1.50;;;19.40;66.80;;;;;;5060620;28;44411;-72
2023/05/03 06:03:30;;;;;;;1.80;1.80;;;19.40;66.90;;;;;;5057451;28;43839;-70
2023/05/03 06:06:00;;;;;;;1.70;1.70;;;19.30;67.00;;;;;;5060497;28;44446;-71
2023/05/03 06:08:28;;;;;;;1.80;1.80;;;19.30;67.30;;;;;;5055673;28;43387;-72
2023/05/03 06:10:56;;;;;;;1.70;1.70;;;19.30;67.60;;;;;;5062503;28;43618;-70
2023/05/03 06:13:26;;;;;;;1.80;1.80;;;19.30;67.10;;;;;;5061040;28;45537;-69
2023/05/03 06:15:55;;;;;;;1.70;1.70;;;19.30;67.20;;;;;;5064101;28;43474;-70
2023/05/03 06:18:24;;;;;;;1.70;1.70;;;19.20;67.20;;;;;;5059014;28;43459;-70
2023/05/03 06:20:52;;;;;;;1.70;1.70;;;19.20;67.20;;;;;;5056160;28;43565;-69
2023/05/03 06:23:22;;;;;;;1.70;1.70;;;19.20;67.60;;;;;;5057707;28;44835;-69
2023/05/03 06:25:51;;;;;;;1.70;1.70;;;19.30;67.60;;;;;;5052746;28;43956;-69
2023/05/03 06:28:20;;;;;;;1.60;1.60;;;19.40;67.50;;;;;;5062474;28;43451;-70
2023/05/03 06:30:51;;;;;;;1.63;1.60;;;19.50;67.00;;;;;;5062468;28;43614;-70
2023/05/03 06:33:20;;;;;;;1.50;1.50;;;19.60;66.80;;;;;;5056981;28;45893;-70
2023/05/03 06:35:50;;;;;;;1.60;1.60;;;19.60;66.70;;;;;;5059536;28;45066;-69
2023/05/03 06:38:20;;;;;;;1.67;1.67;;;19.50;66.50;;;;;;5051430;28;43472;-69
2023/05/03 06:40:50;;;;;;;1.70;1.70;;;19.50;66.60;;;;;;5055558;28;44068;-69
2023/05/03 06:43:19;;;;;;;2.00;1.90;;;19.40;66.80;;;;;;5057712;28;43933;-69
2023/05/03 06:45:56;;;;;;;1.80;1.80;;;19.30;67.00;;;;;;5063486;28;43452;-70
2023/05/03 06:48:27;;;;;;;1.70;1.70;;;19.40;67.30;;;;;;5054162;28;43455;-70
2023/05/03 06:50:56;;;;;;;1.70;1.70;;;19.30;67.20;;;;;;5061529;28;43677;-70
2023/05/03 06:53:24;;;;;;;1.50;1.50;;;19.30;67.20;;;;;;5059907;28;46075;-70
2023/05/03 06:55:53;;;;;;;1.57;1.57;;;19.30;67.30;;;;;;5061346;28;43420;-70
2023/05/03 06:58:21;;;;;;;1.60;1.60;;;19.20;67.30;;;;;;5051334;28;43409;-70
2023/05/03 07:00:52;;;;;;;1.57;1.57;;;19.20;67.50;;;;;;5054436;28;43508;-70
2023/05/03 07:03:20;;;;;;;1.90;1.80;;;19.30;67.60;;;;;;5059771;28;43842;-71
2023/05/03 07:05:48;;;;;;;1.70;1.70;;;19.30;67.50;;;;;;5064296;28;43466;-70
2023/05/03 07:08:16;;;;;;;1.80;1.80;;;19.30;67.20;;;;;;5050181;28;43494;-70
2023/05/03 07:10:46;;;;;;;1.70;1.70;;;19.40;67.10;;;;;;5056565;28;43442;-70
2023/05/03 07:13:15;;;;;;;1.53;1.50;;;19.30;67.00;;;;;;5054036;28;45704;-69
2023/05/03 07:15:45;;;;;;;1.70;1.70;;;19.30;67.40;;;;;;5058199;28;43884;-70
2023/05/03 07:18:13;;;;;;;1.63;1.63;;;19.30;67.30;;;;;;5064316;28;43998;-70
2023/05/03 07:20:41;;;;;;;2.13;2.07;;;19.30;67.10;;;;;;5064829;28;44027;-70
2023/05/03 07:23:09;;;;;;;1.83;1.83;;;19.30;67.00;;;;;;5056360;28;46041;-69
2023/05/03 07:25:38;;;;;;;1.60;1.60;;;19.30;67.00;;;;;;5060463;28;43537;-69
2023/05/03 07:28:06;;;;;;;1.90;1.80;;;19.20;67.00;;;;;;5057929;28;43454;-70
2023/05/03 07:30:35;;;;;;;1.87;1.87;;;19.20;67.30;;;;;;5058011;28;43801;-70
2023/05/03 07:33:03;;;;;;;1.73;1.73;;;19.20;67.20;;;;;;5069630;28;43883;-70
2023/05/03 07:35:31;;;;;;;1.80;1.80;;;19.20;67.20;;;;;;5061287;28;43399;-69
2023/05/03 07:37:59;;;;;;;1.67;1.67;;;19.20;67.20;;;;;;5062444;28;43368;-69
2023/05/03 07:40:31;;;;;;;1.70;1.70;;;19.20;67.50;;;;;;5063488;28;43355;-70
2023/05/03 07:42:59;;;;;;;1.60;1.50;;;19.20;67.60;;;;;;5056536;28;45702;-70
2023/05/03 07:45:27;;;;;;;1.53;1.53;;;19.20;67.50;;;;;;5060981;28;43519;-70
2023/05/03 07:47:57;;;;;;;1.70;1.70;;;19.30;67.40;;;;;;5063174;28;43478;-70
2023/05/03 07:50:25;;;;;;;1.70;1.70;;;19.40;67.00;;;;;;5062740;28;43761;-69
2023/05/03 07:52:54;;;;;;;1.70;1.70;;;19.50;66.60;;;;;;5065063;28;43844;-69
2023/05/03 07:55:22;;;;;;;1.87;1.87;;;19.50;66.50;;;;;;5067020;28;43359;-69
2023/05/03 07:57:57;;;;;;;1.70;1.67;;;19.50;66.40;;;;;;5060008;28;43411;-70
2023/05/03 08:00:25;;;;;;;1.70;1.70;;;19.40;66.50;;;;;;5062382;28;43390;-71
2023/05/03 08:02:53;;;;;;;1.77;1.77;;;19.40;66.70;;;;;;5061558;28;43945;-69
2023/05/03 08:05:23;;;;;;;1.50;1.50;;;19.30;66.90;;;;;;5063771;28;45235;-69
2023/05/03 08:07:51;;;;;;;1.77;1.77;;;19.30;67.20;;;;;;5068273;28;43431;-69
2023/05/03 08:10:20;;;;;;;1.90;1.80;;;19.30;67.10;;;;;;5067731;28;43386;-69
2023/05/03 08:12:48;;;;;;;1.50;1.50;;;19.30;67.20;;;;;;5060554;28;43571;-69
2023/05/03 08:15:16;;;;;;;1.77;1.77;;;19.20;67.10;;;;;;5060687;28;43442;-69
2023/05/03 08:17:45;;;;;;;1.90;1.90;;;19.20;67.30;;;;;;5062891;28;43407;-68
2023/05/03 08:20:14;;;;;;;1.80;1.80;;;19.20;67.50;;;;;;5063862;28;43328;-69
2023/05/03 08:22:45;;;;;;;1.80;1.80;;;19.20;67.50;;;;;;5065469;28;44151;-69
2023/05/03 08:25:15;;;;;;;1.83;1.73;;;19.30;67.50;;;;;;5062567;28;43806;-69
2023/05/03 08:27:43;;;;;;;1.80;1.70;;;19.30;67.20;;;;;;5060787;28;44125;-69
2023/05/03 08:30:11;;;;;;;1.83;1.83;;;19.30;67.00;;;;;;5057207;28;43518;-69
2023/05/03 08:32:39;;;;;;;2.00;1.90;;;19.30;67.10;;;;;;5054982;28;43929;-69
2023/05/03 08:35:08;;;;;;;1.70;1.70;;;19.30;67.30;;;;;;5065694;28;43381;-69
2023/05/03 08:37:39;;;;;;;1.80;1.80;;;19.30;67.10;;;;;;5053485;28;43434;-69
2023/05/03 08:40:10;;;;;;;1.70;1.70;;;19.30;67.20;;;;;;5063884;28;43636;-69
2023/05/03 08:42:40;;;;;;;1.77;1.77;;;19.20;67.10;;;;;;5060661;28;43809;-69
2023/05/03 08:45:13;;;;;;;1.90;1.80;;;19.20;67.30;;;;;;5061494;28;44946;-69
2023/05/03 08:47:43;;;;;;;1.70;1.70;;;19.20;67.50;;;;;;5057866;28;43422;-69
2023/05/03 08:50:12;;;;;;;1.97;1.87;;;19.20;67.50;;;;;;5052473;28;43409;-69
2023/05/03 08:52:41;;;;;;;1.73;1.73;;;19.20;67.50;;;;;;5055825;28;43611;-69
2023/05/03 08:55:10;;;;;;;1.80;1.80;;;19.20;67.50;;;;;;5051244;28;43424;-70
2023/05/03 08:57:38;;;;;;;1.60;1.50;;;19.20;67.50;;;;;;5049962;28;43380;-69
2023/05/03 09:00:09;;;;;;;1.70;1.70;;;19.10;67.60;;;;;;5063019;28;43486;-69
2023/05/03 09:02:38;;;;;;;1.63;1.63;;;19.20;67.70;;;;;;5062445;28;44488;-69
2023/05/03 09:05:31;;;;;;;1.77;1.77;;;19.20;67.50;;;;;;5068208;28;43545;-70
2023/05/03 09:08:03;;;;;;;1.60;1.60;;;19.30;67.20;;;;;;5063739;28;43361;-70
2023/05/03 09:10:33;;;;;;;1.70;1.70;;;19.30;66.90;;;;;;5061828;28;43578;-69
2023/05/03 09:13:02;;;;;;;2.10;2.00;;;19.30;66.70;;;;;;5064919;28;43950;-70
2023/05/03 09:15:30;;;;;;;2.20;1.97;;;19.30;67.10;;;;;;5061365;28;44314;-70
2023/05/03 09:18:11;;;;;;;1.87;1.87;;;19.30;66.70;;;;;;5058319;28;43399;-72
2023/05/03 09:20:49;;;;;;;2.03;1.93;;;19.30;66.00;;;;;;5052706;28;43409;-70
2023/05/03 09:23:18;;;;;;;2.00;1.90;;;19.30;65.80;;;;;;5054399;28;43911;-69
2023/05/03 09:25:50;;;;;;;2.20;2.10;;;19.20;65.80;;;;;;5060602;28;43590;-69
2023/05/03 09:28:18;;;;;;;2.40;2.30;;;19.20;66.70;;;;;;5055303;28;44012;-70
2023/05/03 09:30:47;;;;;;;3.27;2.70;;;19.20;66.80;;;;;;5059396;28;43441;-70
2023/05/03 09:33:19;;;;;;;2.93;2.73;;;19.20;65.30;;;;;;5063577;28;43864;-70
2023/05/03 09:35:56;;;;;;;3.80;2.50;;;19.20;65.20;;;;;;5062665;28;43459;-70
2023/05/03 09:38:27;;;;;;;2.60;2.40;;;19.20;65.40;;;;;;5058086;28;43470;-69
2023/05/03 09:40:57;;;;;;;3.90;3.17;;;19.20;64.80;;;;;;5049772;28;43367;-68
2023/05/03 09:43:25;;;;;;;7.67;3.63;;;19.10;66.40;;;;;;5053117;28;43611;-68
2023/05/03 09:45:53;;;;;;;6.97;3.27;;;19.20;66.90;;;;;;5047454;28;44578;-69
2023/05/03 09:48:22;;;;;;;4.80;3.33;;;19.30;66.80;;;;;;5060184;28;43426;-69
2023/05/03 09:50:50;;;;;;;4.87;3.53;;;19.30;66.50;;;;;;5066616;28;44212;-69
2023/05/03 09:53:19;;;;;;;8.27;3.70;;;19.40;66.20;;;;;;5060313;28;45902;-69
2023/05/03 09:55:47;;;;;;;4.63;3.70;;;19.40;66.20;;;;;;5060562;28;45443;-69
2023/05/03 09:58:16;;;;;;;5.07;3.50;;;19.30;66.70;;;;;;5060983;28;43568;-69
2023/05/03 10:00:49;;;;;;;10.50;3.30;;;19.30;66.60;;;;;;5057131;28;43730;-69
2023/05/03 10:03:23;;;;;;;3.40;3.10;;;19.30;66.40;;;;;;5059059;28;45978;-69
2023/05/03 10:05:51;;;;;;;3.70;3.40;;;19.30;66.60;;;;;;5061715;28;43418;-69
2023/05/03 10:08:23;;;;;;;6.83;3.37;;;19.30;66.90;;;;;;5059690;28;43734;-69
2023/05/03 10:10:53;;;;;;;3.07;2.87;;;19.30;67.10;;;;;;5059478;28;43443;-69
2023/05/03 10:13:22;;;;;;;3.50;2.87;;;19.20;67.30;;;;;;5059198;28;45306;-69
2023/05/03 10:15:52;;;;;;;3.50;3.20;;;19.20;67.20;;;;;;5055320;28;43558;-69
2023/05/03 10:18:20;;;;;;;3.10;2.80;;;19.20;67.30;;;;;;5053504;28;43451;-70
2023/05/03 10:20:50;;;;;;;5.17;3.10;;;19.20;67.50;;;;;;5063647;28;43791;-69
2023/05/03 10:23:18;;;;;;;3.60;3.30;;;19.20;67.50;;;;;;5061189;28;45614;-69
2023/05/03 10:26:13;;;;;;;3.53;3.23;;;19.20;67.60;;;;;;5056472;28;44284;-69
2023/05/03 10:28:43;;;;;;;3.07;2.87;;;19.20;67.60;;;;;;5057262;28;43493;-69
2023/05/03 10:31:45;;;;;;;2.70;2.50;;;19.30;67.60;;;;;;5057551;28;43531;-68
2023/05/03 10:34:20;;;;;;;4.13;2.70;;;19.40;67.20;;;;;;5053694;28;43898;-69
2023/05/03 10:36:51;;;;;;;3.60;3.10;;;19.40;67.00;;;;;;5058627;28;43783;-68
2023/05/03 10:39:19;;;;;;;2.60;2.40;;;19.30;67.20;;;;;;5054179;28;43448;-70
2023/05/03 10:41:58;;;;;;;3.10;2.90;;;19.30;67.30;;;;;;5061757;28;43526;-70
2023/05/03 10:44:28;;;;;;;2.67;2.57;;;19.30;67.30;;;;;;5062834;28;43629;-70
2023/05/03 10:46:56;;;;;;;2.97;2.60;;;19.30;67.40;;;;;;5064859;28;44015;-70
2023/05/03 10:49:25;;;;;;;3.03;2.80;;;19.30;67.60;;;;;;5053554;28;43443;-70
2023/05/03 10:51:53;;;;;;;2.40;2.30;;;19.30;67.60;;;;;;5061057;28;43506;-70
2023/05/03 10:54:21;;;;;;;2.67;2.47;;;19.20;67.70;;;;;;5060623;28;43591;-69
2023/05/03 10:56:50;;;;;;;2.53;2.33;;;19.30;67.80;;;;;;5065388;28;44047;-70
2023/05/03 10:59:18;;;;;;;2.67;2.50;;;19.20;67.80;;;;;;5055141;28;43423;-70
2023/05/03 11:01:49;;;;;;;3.33;2.70;;;19.20;67.90;;;;;;5065519;28;43411;-70
2023/05/03 11:04:33;;;;;;;3.03;2.77;;;19.20;68.00;;;;;;5065332;28;43603;-69
2023/05/03 11:07:01;;;;;;;2.53;2.43;;;19.20;68.10;;;;;;5059942;28;43429;-70
2023/05/03 11:09:32;;;;;;;2.50;2.40;;;19.20;68.10;;;;;;5064346;28;43399;-70
2023/05/03 11:12:04;;;;;;;2.60;2.40;;;19.30;67.90;;;;;;5062976;28;43567;-70
2023/05/03 11:14:32;;;;;;;2.47;2.37;;;19.40;67.70;;;;;;5061099;28;46070;-70
2023/05/03 11:17:01;;;;;;;2.53;2.43;;;19.40;67.50;;;;;;5063898;28;43528;-70
2023/05/03 11:19:30;;;;;;;2.43;2.30;;;19.40;67.10;;;;;;5066291;28;43982;-70
2023/05/03 11:21:58;;;;;;;2.33;2.23;;;19.30;67.60;;;;;;5063236;28;43415;-69
2023/05/03 11:24:25;;;;;;;2.70;2.50;;;19.40;67.50;;;;;;5060326;28;46122;-69
2023/05/03 11:26:54;;;;;;;2.50;2.40;;;19.40;67.60;;;;;;5065156;28;43415;-69
2023/05/03 11:29:24;;;;;;;2.40;2.30;;;19.30;67.60;;;;;;5066673;28;43485;-70
2023/05/03 11:31:52;;;;;;;2.30;2.20;;;19.30;67.70;;;;;;5060051;28;43449;-69
2023/05/03 11:34:22;;;;;;;2.63;2.37;;;19.30;67.90;;;;;;5063940;28;45697;-70
2023/05/03 11:36:50;;;;;;;2.30;2.20;;;19.30;68.10;;;;;;5058609;28;43449;-69
2023/05/03 11:39:18;;;;;;;2.47;2.37;;;19.30;68.00;;;;;;5077526;28;43426;-69
2023/05/03 11:42:01;;;;;;;2.33;2.27;;;19.30;67.80;;;;;;5054935;28;43574;-70
2023/05/03 11:44:30;;;;;;;2.07;2.07;;;19.30;67.80;;;;;;5051152;28;43596;-69
2023/05/03 11:46:58;;;;;;;2.27;2.17;;;19.30;67.90;;;;;;5064107;28;45025;-70
2023/05/03 11:49:27;;;;;;;2.20;2.20;;;19.30;68.10;;;;;;5067107;28;43473;-69
2023/05/03 11:51:55;;;;;;;2.47;2.37;;;19.30;68.00;;;;;;5066426;28;43506;-69
2023/05/03 11:54:23;;;;;;;2.33;2.23;;;19.30;68.10;;;;;;5063425;28;43950;-69
2023/05/03 11:56:56;;;;;;;2.10;2.07;;;19.30;68.20;;;;;;5056138;28;43475;-69
2023/05/03 11:59:34;;;;;;;2.33;2.23;;;19.30;68.30;;;;;;5059254;28;43902;-69
2023/05/03 12:02:03;;;;;;;4.13;2.50;;;19.20;68.00;;;;;;5066808;28;43655;-69
2023/05/03 12:04:32;;;;;;;2.50;2.30;;;19.20;68.20;;;;;;5061118;28;43782;-69
2023/05/03 12:07:01;;;;;;;2.53;2.30;;;19.30;68.10;;;;;;5062351;28;44100;-69
2023/05/03 12:09:31;;;;;;;2.53;2.43;;;19.40;67.70;;;;;;5050137;28;43401;-69
2023/05/03 12:12:00;;;;;;;2.60;2.50;;;19.40;67.40;;;;;;5066301;28;43554;-68
2023/05/03 12:14:45;;;;;;;2.23;2.20;;;19.40;66.90;;;;;;5066333;28;43935;-69
2023/05/03 12:17:14;;;;;;;2.50;2.40;;;19.40;67.20;;;;;;5057452;28;43411;-68
2023/05/03 12:19:44;;;;;;;2.53;2.43;;;19.40;67.50;;;;;;5059255;28;43510;-69
2023/05/03 12:22:20;;;;;;;2.13;2.07;;;19.40;66.90;;;;;;5056533;28;43483;-68
2023/05/03 12:24:53;;;;;;;2.27;2.17;;;19.40;66.90;;;;;;5057329;28;43890;-69
2023/05/03 12:27:22;;;;;;;1.93;1.93;;;19.30;67.20;;;;;;5058995;28;43498;-69
2023/05/03 12:29:50;;;;;;;2.50;2.40;;;19.30;67.40;;;;;;5063044;28;43447;-70
2023/05/03 12:32:19;;;;;;;2.47;2.37;;;19.30;67.70;;;;;;5062080;28;43410;-69
2023/05/03 12:34:51;;;;;;;2.20;2.10;;;19.30;67.10;;;;;;5061318;28;43940;-69
2023/05/03 12:37:19;;;;;;;2.30;2.20;;;19.30;67.00;;;;;;5050495;28;43362;-69
2023/05/03 12:39:50;;;;;;;2.30;2.10;;;19.20;67.00;;;;;;5069631;28;43483;-69
2023/05/03 12:42:37;;;;;;;2.20;2.10;;;19.20;67.20;;;;;;5057388;28;43468;-69
2023/05/03 12:45:07;;;;;;;2.23;2.10;;;19.20;67.60;;;;;;5056195;28;46045;-69
2023/05/03 12:47:39;;;;;;;2.13;2.03;;;19.20;67.70;;;;;;5067489;28;43417;-69
2023/05/03 12:50:12;;;;;;;2.20;2.10;;;19.30;67.50;;;;;;5057916;28;43990;-69
2023/05/03 12:52:45;;;;;;;2.27;2.20;;;19.40;67.20;;;;;;5062942;28;43956;-69
2023/05/03 12:55:14;;;;;;;2.07;2.07;;;19.40;66.30;;;;;;5062710;28;45723;-69
2023/05/03 12:57:46;;;;;;;2.60;2.40;;;19.40;66.40;;;;;;5063944;28;43509;-69
2023/05/03 13:00:33;;;;;;;2.20;2.10;;;19.40;67.20;;;;;;5059329;28;43402;-69
2023/05/03 13:03:04;;;;;;;2.00;1.90;;;19.30;67.00;;;;;;5062796;28;43551;-69